<?xml version="1.0" encoding="UTF-8" standalone="no" ?>
<gpx xmlns="http://www.topografix.com/GPX/1/1" xmlns:xsi="http://www.w3.org/2001/XMLSchema-instance" xsi:schemaLocation="http://www.topografix.com/GPX/1/1 http://www.topografix.com/GPX/1/1/gpx.xsd" version="1.1" creator="VisuGPX - https://www.visugpx.com">
  <metadata>
    <name>24 03 19 VTT</name>
    <desc><![CDATA[24 03 19 randonnée VTT, près de BRAS]]></desc>
  </metadata>
  <trk>
    <name><![CDATA[Fontaine_Guillandiere]]></name>
    <trkseg>
      <trkpt lat="43.39373" lon="5.85108">
        <ele>356.69140625</ele>
      </trkpt>
      <trkpt lat="43.38855" lon="5.85131">
        <ele>398</ele>
        <time>2019-03-03T15:09:45Z</time>
      </trkpt>
      <trkpt lat="43.38842" lon="5.85205">
        <ele>406</ele>
        <time>2019-03-03T15:09:35Z</time>
      </trkpt>
      <trkpt lat="43.38838" lon="5.85275">
        <ele>420</ele>
        <time>2019-03-03T15:09:25Z</time>
      </trkpt>
      <trkpt lat="43.38837" lon="5.85342">
        <ele>422</ele>
        <time>2019-03-03T15:09:20Z</time>
      </trkpt>
      <trkpt lat="43.38819" lon="5.85403">
        <ele>428</ele>
        <time>2019-03-03T15:09:15Z</time>
      </trkpt>
      <trkpt lat="43.38787" lon="5.85439">
        <ele>432</ele>
        <time>2019-03-03T15:09:10Z</time>
      </trkpt>
      <trkpt lat="43.38751" lon="5.85466">
        <ele>434</ele>
        <time>2019-03-03T15:09:05Z</time>
      </trkpt>
      <trkpt lat="43.38669" lon="5.85497">
        <ele>439</ele>
        <time>2019-03-03T15:08:55Z</time>
      </trkpt>
      <trkpt lat="43.38623" lon="5.85525">
        <ele>441</ele>
        <time>2019-03-03T15:08:50Z</time>
      </trkpt>
      <trkpt lat="43.38581" lon="5.85567">
        <ele>446</ele>
        <time>2019-03-03T15:08:45Z</time>
      </trkpt>
      <trkpt lat="43.38523" lon="5.85614">
        <ele>452</ele>
        <time>2019-03-03T15:08:35Z</time>
      </trkpt>
      <trkpt lat="43.3848" lon="5.8564">
        <ele>460</ele>
        <time>2019-03-03T15:08:20Z</time>
      </trkpt>
      <trkpt lat="43.38442" lon="5.85667">
        <ele>463</ele>
        <time>2019-03-03T15:08:15Z</time>
      </trkpt>
      <trkpt lat="43.38392" lon="5.85686">
        <ele>467</ele>
        <time>2019-03-03T15:08:10Z</time>
      </trkpt>
      <trkpt lat="43.38368" lon="5.85743">
        <ele>468</ele>
        <time>2019-03-03T15:08:05Z</time>
      </trkpt>
      <trkpt lat="43.3834" lon="5.85822">
        <ele>474</ele>
        <time>2019-03-03T15:07:55Z</time>
      </trkpt>
      <trkpt lat="43.38302" lon="5.85863">
        <ele>479</ele>
        <time>2019-03-03T15:07:45Z</time>
      </trkpt>
      <trkpt lat="43.38265" lon="5.85941">
        <ele>483</ele>
        <time>2019-03-03T15:07:35Z</time>
      </trkpt>
      <trkpt lat="43.38226" lon="5.85979">
        <ele>493</ele>
        <time>2019-03-03T15:07:25Z</time>
      </trkpt>
      <trkpt lat="43.3819" lon="5.85992">
        <ele>501</ele>
        <time>2019-03-03T15:07:10Z</time>
      </trkpt>
      <trkpt lat="43.38129" lon="5.86053">
        <ele>517</ele>
        <time>2019-03-03T15:07:00Z</time>
      </trkpt>
      <trkpt lat="43.38039" lon="5.8609">
        <ele>523</ele>
        <time>2019-03-03T15:06:55Z</time>
      </trkpt>
      <trkpt lat="43.37923" lon="5.86095">
        <ele>538</ele>
        <time>2019-03-03T15:06:50Z</time>
      </trkpt>
      <trkpt lat="43.37863" lon="5.86067">
        <ele>541</ele>
        <time>2019-03-03T15:06:45Z</time>
      </trkpt>
      <trkpt lat="43.37824" lon="5.85987">
        <ele>552</ele>
        <time>2019-03-03T15:06:35Z</time>
      </trkpt>
      <trkpt lat="43.37782" lon="5.85823">
        <ele>559</ele>
        <time>2019-03-03T15:06:30Z</time>
      </trkpt>
      <trkpt lat="43.37764" lon="5.8571">
        <ele>568</ele>
        <time>2019-03-03T15:06:20Z</time>
      </trkpt>
      <trkpt lat="43.3775" lon="5.85653">
        <ele>570</ele>
        <time>2019-03-03T15:06:15Z</time>
      </trkpt>
      <trkpt lat="43.37725" lon="5.85632">
        <ele>566</ele>
        <time>2019-03-03T15:06:05Z</time>
      </trkpt>
      <trkpt lat="43.37729" lon="5.85707">
        <ele>511</ele>
        <time>2019-03-03T15:01:20Z</time>
      </trkpt>
      <trkpt lat="43.37716" lon="5.85733">
        <ele>511</ele>
        <time>2019-03-03T15:01:15Z</time>
      </trkpt>
      <trkpt lat="43.37704" lon="5.85747">
        <ele>512</ele>
        <time>2019-03-03T15:01:10Z</time>
      </trkpt>
      <trkpt lat="43.37699" lon="5.85865">
        <ele>514</ele>
        <time>2019-03-03T15:01:05Z</time>
      </trkpt>
      <trkpt lat="43.3771" lon="5.85964">
        <ele>514</ele>
        <time>2019-03-03T15:01:00Z</time>
      </trkpt>
      <trkpt lat="43.37728" lon="5.86088">
        <ele>515</ele>
        <time>2019-03-03T15:00:55Z</time>
      </trkpt>
      <trkpt lat="43.37722" lon="5.86237">
        <ele>517</ele>
        <time>2019-03-03T15:00:50Z</time>
      </trkpt>
      <trkpt lat="43.37692" lon="5.86288">
        <ele>519</ele>
        <time>2019-03-03T15:00:45Z</time>
      </trkpt>
      <trkpt lat="43.3765" lon="5.86331">
        <ele>519</ele>
        <time>2019-03-03T15:00:40Z</time>
      </trkpt>
      <trkpt lat="43.3761" lon="5.86594">
        <ele>520</ele>
        <time>2019-03-03T15:00:35Z</time>
      </trkpt>
      <trkpt lat="43.37598" lon="5.86777">
        <ele>521</ele>
        <time>2019-03-03T15:00:30Z</time>
      </trkpt>
      <trkpt lat="43.37443" lon="5.86946">
        <ele>520.80859375</ele>
      </trkpt>
      <trkpt lat="43.37435" lon="5.87056">
        <ele>514.19921875</ele>
      </trkpt>
      <trkpt lat="43.37437" lon="5.87188">
        <ele>518.16015625</ele>
      </trkpt>
      <trkpt lat="43.37393" lon="5.87253">
        <ele>522</ele>
      </trkpt>
      <trkpt lat="43.37379" lon="5.87175">
        <ele>522.76953125</ele>
      </trkpt>
      <trkpt lat="43.37347" lon="5.87109">
        <ele>524.52734375</ele>
      </trkpt>
      <trkpt lat="43.37342" lon="5.8696">
        <ele>530.1171875</ele>
      </trkpt>
      <trkpt lat="43.37326" lon="5.86815">
        <ele>536.2109375</ele>
      </trkpt>
      <trkpt lat="43.37325" lon="5.86735">
        <ele>539.53125</ele>
      </trkpt>
      <trkpt lat="43.37323" lon="5.86651">
        <ele>543.73046875</ele>
      </trkpt>
      <trkpt lat="43.37307" lon="5.86561">
        <ele>549.78125</ele>
      </trkpt>
      <trkpt lat="43.37286" lon="5.86487">
        <ele>549.28515625</ele>
      </trkpt>
      <trkpt lat="43.3726" lon="5.86409">
        <ele>549.171875</ele>
      </trkpt>
      <trkpt lat="43.37233" lon="5.86348">
        <ele>549.05078125</ele>
      </trkpt>
      <trkpt lat="43.37237" lon="5.86321">
        <ele>548.33203125</ele>
      </trkpt>
      <trkpt lat="43.37215" lon="5.86174">
        <ele>548.609375</ele>
      </trkpt>
      <trkpt lat="43.37214" lon="5.86068">
        <ele>550.02734375</ele>
      </trkpt>
      <trkpt lat="43.37196" lon="5.85968">
        <ele>549.58203125</ele>
      </trkpt>
      <trkpt lat="43.3718" lon="5.85896">
        <ele>549.82421875</ele>
      </trkpt>
      <trkpt lat="43.37164" lon="5.85824">
        <ele>549.96484375</ele>
      </trkpt>
      <trkpt lat="43.37151" lon="5.85776">
        <ele>550.86328125</ele>
      </trkpt>
      <trkpt lat="43.37128" lon="5.85768">
        <ele>551.93359375</ele>
      </trkpt>
      <trkpt lat="43.37105" lon="5.85753">
        <ele>552.03125</ele>
      </trkpt>
      <trkpt lat="43.37102" lon="5.85797">
        <ele>551.07421875</ele>
      </trkpt>
      <trkpt lat="43.37074" lon="5.85828">
        <ele>548.7890625</ele>
      </trkpt>
      <trkpt lat="43.37062" lon="5.85857">
        <ele>546.20703125</ele>
      </trkpt>
      <trkpt lat="43.37053" lon="5.85894">
        <ele>543.421875</ele>
      </trkpt>
      <trkpt lat="43.37033" lon="5.85889">
        <ele>540.640625</ele>
      </trkpt>
      <trkpt lat="43.37017" lon="5.85918">
        <ele>535.5234375</ele>
      </trkpt>
      <trkpt lat="43.36996" lon="5.85922">
        <ele>529.74609375</ele>
      </trkpt>
      <trkpt lat="43.36966" lon="5.85955">
        <ele>518.4765625</ele>
      </trkpt>
      <trkpt lat="43.36962" lon="5.86011">
        <ele>514.4765625</ele>
      </trkpt>
      <trkpt lat="43.3693" lon="5.86029">
        <ele>504.2890625</ele>
      </trkpt>
      <trkpt lat="43.36923" lon="5.86015">
        <ele>502.96875</ele>
      </trkpt>
      <trkpt lat="43.36915" lon="5.85959">
        <ele>504.09765625</ele>
      </trkpt>
      <trkpt lat="43.36885" lon="5.859">
        <ele>506.50390625</ele>
      </trkpt>
      <trkpt lat="43.3687" lon="5.85848">
        <ele>507.22265625</ele>
      </trkpt>
      <trkpt lat="43.36845" lon="5.85817">
        <ele>507.36328125</ele>
      </trkpt>
      <trkpt lat="43.36831" lon="5.85755">
        <ele>512.06640625</ele>
      </trkpt>
      <trkpt lat="43.36818" lon="5.8571">
        <ele>513.234375</ele>
      </trkpt>
      <trkpt lat="43.36807" lon="5.8564">
        <ele>513.7734375</ele>
      </trkpt>
      <trkpt lat="43.36802" lon="5.8558">
        <ele>516.46875</ele>
      </trkpt>
      <trkpt lat="43.36798" lon="5.85541">
        <ele>518.265625</ele>
      </trkpt>
      <trkpt lat="43.36804" lon="5.8547">
        <ele>521.80859375</ele>
      </trkpt>
      <trkpt lat="43.36849" lon="5.85436">
        <ele>534.60546875</ele>
      </trkpt>
      <trkpt lat="43.36889" lon="5.85375">
        <ele>539.609375</ele>
      </trkpt>
      <trkpt lat="43.36903" lon="5.85384">
        <ele>541.22265625</ele>
      </trkpt>
      <trkpt lat="43.36915" lon="5.85363">
        <ele>541.93359375</ele>
      </trkpt>
      <trkpt lat="43.36917" lon="5.85346">
        <ele>541.9375</ele>
      </trkpt>
      <trkpt lat="43.36954" lon="5.85362">
        <ele>540.66015625</ele>
      </trkpt>
      <trkpt lat="43.36973" lon="5.8539">
        <ele>540.296875</ele>
      </trkpt>
      <trkpt lat="43.37001" lon="5.85398">
        <ele>539.3359375</ele>
      </trkpt>
      <trkpt lat="43.37008" lon="5.8541">
        <ele>538.953125</ele>
      </trkpt>
      <trkpt lat="43.37032" lon="5.85415">
        <ele>537.98046875</ele>
      </trkpt>
      <trkpt lat="43.37118" lon="5.85489">
        <ele>537.484375</ele>
      </trkpt>
      <trkpt lat="43.37162" lon="5.85508">
        <ele>535.46875</ele>
      </trkpt>
      <trkpt lat="43.37215" lon="5.85532">
        <ele>532.57421875</ele>
      </trkpt>
      <trkpt lat="43.37253" lon="5.8554">
        <ele>532.140625</ele>
      </trkpt>
      <trkpt lat="43.37304" lon="5.85627">
        <ele>528.52734375</ele>
      </trkpt>
      <trkpt lat="43.37352" lon="5.85699">
        <ele>523.4140625</ele>
      </trkpt>
      <trkpt lat="43.37403" lon="5.85734">
        <ele>520.0625</ele>
      </trkpt>
      <trkpt lat="43.37449" lon="5.85778">
        <ele>520.7421875</ele>
      </trkpt>
      <trkpt lat="43.37497" lon="5.85788">
        <ele>520.8203125</ele>
      </trkpt>
      <trkpt lat="43.37526" lon="5.85761">
        <ele>518.734375</ele>
      </trkpt>
      <trkpt lat="43.37564" lon="5.85688">
        <ele>515.4296875</ele>
      </trkpt>
      <trkpt lat="43.37611" lon="5.85657">
        <ele>514.640625</ele>
      </trkpt>
      <trkpt lat="43.37662" lon="5.8564">
        <ele>512.546875</ele>
      </trkpt>
      <trkpt lat="43.37691" lon="5.85635">
        <ele>511.13671875</ele>
      </trkpt>
      <trkpt lat="43.37718" lon="5.85627">
        <ele>510.9921875</ele>
      </trkpt>
      <trkpt lat="43.37755" lon="5.85659">
        <ele>510.03125</ele>
      </trkpt>
      <trkpt lat="43.37775" lon="5.85698">
        <ele>512.91015625</ele>
      </trkpt>
      <trkpt lat="43.37796" lon="5.85773">
        <ele>508.00390625</ele>
      </trkpt>
      <trkpt lat="43.37826" lon="5.85851">
        <ele>502.45703125</ele>
      </trkpt>
      <trkpt lat="43.37862" lon="5.85922">
        <ele>494.3046875</ele>
      </trkpt>
      <trkpt lat="43.37907" lon="5.85988">
        <ele>480.72265625</ele>
      </trkpt>
      <trkpt lat="43.3795" lon="5.86013">
        <ele>471.73046875</ele>
      </trkpt>
      <trkpt lat="43.38018" lon="5.86001">
        <ele>472.0625</ele>
      </trkpt>
      <trkpt lat="43.38073" lon="5.85992">
        <ele>465.828125</ele>
      </trkpt>
      <trkpt lat="43.38138" lon="5.85942">
        <ele>459.9140625</ele>
      </trkpt>
      <trkpt lat="43.3818" lon="5.85867">
        <ele>458.1953125</ele>
      </trkpt>
      <trkpt lat="43.38219" lon="5.85801">
        <ele>453.0234375</ele>
      </trkpt>
      <trkpt lat="43.3825" lon="5.85714">
        <ele>449.67578125</ele>
      </trkpt>
      <trkpt lat="43.38271" lon="5.85645">
        <ele>450.80859375</ele>
      </trkpt>
      <trkpt lat="43.38339" lon="5.85609">
        <ele>443.8203125</ele>
      </trkpt>
      <trkpt lat="43.38393" lon="5.85603">
        <ele>439.5859375</ele>
      </trkpt>
      <trkpt lat="43.38445" lon="5.85619">
        <ele>431.38671875</ele>
      </trkpt>
      <trkpt lat="43.38482" lon="5.85632">
        <ele>423.6484375</ele>
      </trkpt>
      <trkpt lat="43.3854" lon="5.85579">
        <ele>421.734375</ele>
      </trkpt>
      <trkpt lat="43.38593" lon="5.85542">
        <ele>416.40234375</ele>
      </trkpt>
      <trkpt lat="43.3864" lon="5.85501">
        <ele>415.06640625</ele>
      </trkpt>
      <trkpt lat="43.38703" lon="5.85476">
        <ele>411.4921875</ele>
      </trkpt>
      <trkpt lat="43.38753" lon="5.85453">
        <ele>408.58984375</ele>
      </trkpt>
      <trkpt lat="43.38814" lon="5.854">
        <ele>402.7265625</ele>
      </trkpt>
      <trkpt lat="43.3884" lon="5.85324">
        <ele>398.36328125</ele>
      </trkpt>
      <trkpt lat="43.38846" lon="5.85176">
        <ele>396.96484375</ele>
      </trkpt>
      <trkpt lat="43.38855" lon="5.85126">
        <ele>394.0859375</ele>
      </trkpt>
      <trkpt lat="43.38913" lon="5.85119">
        <ele>385.4609375</ele>
      </trkpt>
      <trkpt lat="43.38974" lon="5.85132">
        <ele>380.515625</ele>
      </trkpt>
      <trkpt lat="43.39043" lon="5.85137">
        <ele>375.48046875</ele>
      </trkpt>
      <trkpt lat="43.39115" lon="5.85126">
        <ele>370.80859375</ele>
      </trkpt>
      <trkpt lat="43.39199" lon="5.85119">
        <ele>365.9296875</ele>
      </trkpt>
      <trkpt lat="43.39266" lon="5.85113">
        <ele>361.7109375</ele>
      </trkpt>
      <trkpt lat="43.39295" lon="5.85096">
        <ele>360.16796875</ele>
      </trkpt>
      <trkpt lat="43.39372" lon="5.85107">
        <ele>356.7109375</ele>
      </trkpt>
    </trkseg>
  </trk>
</gpx>